Terminal Aerodrome Forecast
Issued by NWS Rapid City, SD

Home | Current Version | Previous Version | Text Only | Print | Product List | Glossary Off
Versions: 1 2 3 4 5 6 7 8 9 10 11 12 13 14 15 16 17 18

000
FTUS43 KUNR 251000 AAB
TAFRAP
TAF AMD
KRAP 251008Z 2510/2606 34008KT P6SM -SN BKN004 OVC020
     FM251300 35015KT 3/4SM -SN BR VV007
     FM260100 34010KT P6SM BKN030=

USA.gov is the U.S. government's official web portal to all federal, state and local government web resources and services.